createdAt,value
2023-03-24T07:23:34.776Z,17.77
2023-03-24T07:26:01.722Z,17.90
2023-03-24T07:28:28.664Z,19.48
2023-03-24T07:30:55.764Z,17.90
2023-03-24T07:33:24.913Z,14.50
2023-03-24T07:35:56.262Z,12.88
2023-03-24T07:38:24.219Z,19.40
2023-03-24T07:40:51.109Z,20.98
2023-03-24T07:43:18.072Z,14.35
2023-03-24T07:45:46.501Z,20.02
2023-03-24T07:48:13.719Z,19.92
2023-03-24T07:50:40.572Z,18.95
2023-03-24T07:53:10.381Z,18.00
2023-03-24T07:55:38.569Z,23.70
2023-03-24T07:58:06.158Z,15.68
2023-03-24T08:00:33.734Z,18.85
2023-03-24T08:03:00.944Z,17.05
2023-03-24T08:05:29.943Z,17.05
2023-03-24T08:07:58.647Z,12.48
2023-03-24T08:10:30.849Z,17.98
2023-03-24T08:12:59.211Z,17.33
2023-03-24T08:15:27.608Z,19.67
2023-03-24T08:17:56.773Z,16.27
2023-03-24T08:20:25.010Z,16.95
2023-03-24T08:22:54.166Z,13.68
2023-03-24T08:25:24.538Z,17.80
2023-03-24T08:27:51.781Z,15.10
2023-03-24T08:30:23.732Z,15.25
2023-03-24T08:32:56.034Z,14.57
2023-03-24T08:35:28.763Z,13.55
2023-03-24T08:37:55.574Z,14.52
2023-03-24T08:40:24.377Z,14.30
2023-03-24T08:43:00.153Z,17.42
2023-03-24T08:45:30.553Z,18.42
2023-03-24T08:48:00.060Z,13.25
2023-03-24T08:50:30.030Z,14.30
2023-03-24T08:52:57.343Z,11.52
2023-03-24T08:55:24.655Z,14.25
2023-03-24T08:57:52.116Z,13.35
2023-03-24T09:00:20.823Z,10.02
2023-03-24T09:02:50.345Z,13.25
2023-03-24T09:05:21.314Z,15.77
2023-03-24T09:07:53.823Z,15.80
2023-03-24T09:10:22.637Z,15.63
2023-03-24T09:12:49.661Z,17.17
2023-03-24T09:15:16.580Z,13.20
2023-03-24T09:17:43.504Z,19.85
2023-03-24T09:20:13.642Z,15.90
2023-03-24T09:22:46.245Z,15.90
2023-03-24T09:25:18.812Z,11.80
2023-03-24T09:27:46.154Z,15.57
2023-03-24T09:30:18.266Z,17.40
2023-03-24T09:32:46.214Z,12.82
2023-03-24T09:35:13.653Z,18.30
2023-03-24T09:37:42.256Z,12.45
2023-03-24T09:40:21.456Z,11.80
2023-03-24T09:43:09.541Z,13.70
2023-03-24T09:45:44.451Z,11.85
2023-03-24T09:48:27.609Z,15.82
2023-03-24T09:51:04.053Z,12.98
2023-03-24T09:53:49.848Z,13.63
2023-03-24T09:58:49.857Z,15.75
2023-03-24T10:01:18.110Z,17.92
2023-03-24T10:03:46.885Z,13.38
2023-03-24T10:06:26.031Z,15.05
2023-03-24T10:09:07.187Z,14.85
2023-03-24T10:11:51.622Z,12.65
2023-03-24T10:14:24.975Z,19.40
2023-03-24T10:16:51.752Z,14.77
2023-03-24T10:19:59.714Z,16.45
2023-03-24T10:22:39.547Z,13.32
2023-03-24T10:25:19.359Z,15.93
2023-03-24T10:27:54.120Z,10.70
2023-03-24T10:30:30.789Z,9.18
2023-03-24T10:32:58.357Z,11.35
2023-03-24T10:35:33.446Z,13.15
2023-03-24T10:38:02.804Z,9.85
2023-03-24T10:40:33.978Z,10.93
2023-03-24T10:43:06.698Z,12.20
2023-03-24T10:45:42.006Z,11.13
2023-03-24T10:48:09.772Z,14.15
2023-03-24T10:50:43.090Z,16.15
2023-03-24T10:53:20.189Z,14.98
2023-03-24T10:55:48.362Z,8.93
2023-03-24T10:58:26.365Z,10.38
2023-03-24T11:00:54.024Z,9.27
2023-03-24T11:03:30.835Z,10.52
2023-03-24T11:06:03.120Z,7.78
2023-03-24T11:08:39.169Z,13.93
2023-03-24T11:11:23.903Z,7.88
2023-03-24T11:14:04.343Z,13.10
2023-03-24T11:16:36.656Z,7.03
2023-03-24T11:19:22.322Z,10.10
2023-03-24T11:21:51.650Z,29.17
2023-03-24T11:24:20.865Z,13.57
2023-03-24T11:27:03.294Z,10.13
2023-03-24T11:29:33.431Z,12.02
2023-03-24T11:32:11.002Z,12.57
2023-03-24T11:34:48.943Z,16.13
2023-03-24T11:37:22.471Z,18.02
2023-03-24T11:40:17.428Z,12.93
2023-03-24T11:42:51.131Z,9.75
2023-03-24T11:45:25.988Z,9.63
2023-03-24T11:47:58.971Z,7.20
2023-03-24T11:50:37.786Z,6.93
2023-03-24T11:53:10.672Z,8.00
2023-03-24T11:55:53.595Z,7.28
2023-03-24T11:58:32.414Z,7.47
2023-03-24T12:01:04.157Z,7.15
2023-03-24T12:03:58.729Z,9.57
2023-03-24T12:06:50.806Z,13.03
2023-03-24T12:10:01.855Z,12.38
2023-03-24T12:12:57.085Z,13.52
2023-03-24T12:15:29.867Z,14.02
2023-03-24T12:18:27.024Z,9.15
2023-03-24T12:20:57.167Z,10.52
2023-03-24T12:23:39.027Z,11.55
2023-03-24T12:26:14.432Z,8.02
2023-03-24T12:29:02.139Z,13.27
2023-03-24T12:31:31.974Z,16.15
2023-03-24T12:34:25.629Z,17.35
2023-03-24T12:37:30.107Z,10.73
2023-03-24T12:40:10.294Z,11.85
2023-03-24T12:43:10.527Z,8.68
2023-03-24T12:45:53.278Z,14.25
2023-03-24T12:48:29.076Z,10.57
2023-03-24T12:51:10.872Z,8.90
2023-03-24T12:54:05.156Z,10.07
2023-03-24T12:56:56.622Z,9.15
2023-03-24T12:59:46.114Z,7.90
2023-03-24T13:02:34.238Z,7.53
2023-03-24T13:05:05.551Z,8.27
2023-03-24T13:07:39.146Z,6.60
2023-03-24T13:10:23.138Z,8.50
2023-03-24T13:12:58.209Z,6.90
2023-03-24T13:15:45.827Z,9.10
2023-03-24T13:18:21.571Z,9.02
2023-03-24T13:21:00.988Z,12.13
2023-03-24T13:23:55.261Z,8.63
2023-03-24T13:26:24.885Z,8.15
2023-03-24T13:29:20.047Z,10.15
2023-03-24T13:32:09.868Z,11.27
2023-03-24T13:34:42.791Z,10.50
2023-03-24T13:37:26.808Z,9.85
2023-03-24T13:39:59.659Z,8.32
2023-03-24T13:42:42.201Z,10.88
2023-03-24T13:45:34.842Z,11.13
2023-03-24T13:48:11.009Z,6.03
2023-03-24T13:50:40.938Z,5.50
2023-03-24T13:53:14.720Z,7.13
2023-03-24T13:55:49.363Z,10.13
2023-03-24T13:58:22.479Z,7.63
2023-03-24T14:01:11.261Z,7.88
2023-03-24T14:03:43.387Z,5.68
2023-03-24T14:06:15.199Z,10.38
2023-03-24T14:08:48.154Z,8.98
2023-03-24T14:11:41.437Z,7.97
2023-03-24T14:14:21.852Z,7.90
2023-03-24T14:17:13.673Z,7.47
2023-03-24T14:19:58.956Z,6.72
2023-03-24T14:22:30.699Z,9.00
2023-03-24T14:24:59.031Z,6.80
2023-03-24T14:27:42.582Z,11.15
2023-03-24T14:30:23.121Z,7.22
2023-03-24T14:32:56.120Z,9.20
2023-03-24T14:35:26.003Z,11.68
2023-03-24T14:37:56.573Z,6.93
2023-03-24T14:40:37.676Z,12.38
2023-03-24T14:43:22.325Z,8.00
2023-03-24T14:46:04.514Z,12.15
2023-03-24T14:48:39.327Z,7.38
2023-03-24T14:51:18.335Z,9.70
2023-03-24T14:53:45.857Z,8.38
2023-03-24T14:56:16.736Z,10.98
2023-03-24T14:58:47.574Z,7.00
2023-03-24T15:01:15.648Z,6.15
2023-03-24T15:04:02.074Z,7.15
2023-03-24T15:06:29.213Z,7.50
2023-03-24T15:08:58.777Z,6.78
2023-03-24T15:11:34.923Z,3.88
2023-03-24T15:14:05.122Z,7.25
2023-03-24T15:16:35.573Z,6.47
2023-03-24T15:19:21.383Z,12.10
2023-03-24T15:22:03.386Z,7.65
2023-03-24T15:24:36.134Z,8.38
2023-03-24T15:27:06.577Z,6.78
2023-03-24T15:29:34.698Z,7.03
2023-03-24T15:32:01.712Z,9.70
2023-03-24T15:34:31.535Z,8.65
2023-03-24T15:37:02.181Z,10.55
2023-03-24T15:39:33.698Z,7.07
2023-03-24T15:42:00.757Z,14.27
2023-03-24T15:44:31.137Z,10.55
2023-03-24T15:46:59.954Z,6.93
2023-03-24T15:49:37.279Z,6.13
2023-03-24T15:52:35.092Z,8.90
2023-03-24T15:55:26.229Z,7.93
2023-03-24T15:57:56.231Z,6.20
2023-03-24T16:00:36.478Z,5.68
2023-03-24T16:03:06.895Z,7.05
2023-03-24T16:05:35.005Z,9.45
2023-03-24T16:08:23.522Z,6.78
2023-03-24T16:11:04.231Z,7.95
2023-03-24T16:13:31.244Z,6.57
2023-03-24T16:16:14.623Z,9.32
2023-03-24T16:18:43.958Z,6.22
2023-03-24T16:21:19.722Z,6.72
2023-03-24T16:23:47.069Z,8.27
2023-03-24T16:26:15.403Z,7.57
2023-03-24T16:28:42.299Z,5.68
2023-03-24T16:31:18.425Z,12.57
2023-03-24T16:36:12.501Z,9.07
2023-03-24T16:38:40.981Z,9.60
2023-03-24T16:41:11.362Z,6.43
2023-03-24T16:43:38.468Z,11.05
2023-03-24T16:46:05.937Z,11.00
2023-03-24T16:48:32.857Z,6.88
2023-03-24T16:50:59.717Z,5.43
2023-03-24T16:53:26.585Z,7.20
2023-03-24T16:55:53.373Z,7.60
2023-03-24T16:58:20.233Z,4.65
2023-03-24T17:00:49.192Z,10.70
2023-03-24T17:03:17.998Z,5.70
2023-03-24T17:05:50.671Z,6.90
2023-03-24T17:08:18.945Z,10.90
2023-03-24T17:10:49.521Z,8.98
2023-03-24T17:13:25.840Z,9.10
2023-03-24T17:18:20.049Z,8.02
2023-03-24T17:20:48.302Z,10.48
2023-03-24T17:23:18.677Z,6.25
2023-03-24T17:25:45.904Z,12.75
2023-03-24T17:28:15.008Z,5.85
2023-03-24T17:30:42.893Z,6.15
2023-03-24T17:33:14.877Z,8.38
2023-03-24T17:35:45.692Z,11.93
2023-03-24T17:38:16.784Z,6.28
2023-03-24T17:40:44.183Z,7.70
2023-03-24T17:43:11.294Z,7.10
2023-03-24T17:45:41.016Z,7.30
2023-03-24T17:48:07.868Z,9.25
2023-03-24T17:50:34.931Z,7.32
2023-03-24T17:53:01.829Z,6.63
2023-03-24T17:55:28.663Z,8.75
2023-03-24T17:57:55.681Z,8.02
2023-03-24T18:00:22.615Z,8.30
2023-03-24T18:02:49.467Z,7.68
2023-03-24T18:05:16.383Z,7.97
2023-03-24T18:07:43.235Z,10.07
2023-03-24T18:10:10.240Z,6.93
2023-03-24T18:12:37.290Z,9.65
2023-03-24T18:15:07.096Z,7.68
2023-03-24T18:17:34.193Z,5.80
2023-03-24T18:20:09.964Z,8.18
2023-03-24T18:22:37.840Z,5.53
2023-03-24T18:25:04.841Z,8.70
2023-03-24T18:27:31.907Z,5.50
2023-03-24T18:29:58.702Z,5.25
2023-03-24T18:32:27.206Z,4.45
2023-03-24T18:34:54.138Z,6.50
2023-03-24T18:37:21.090Z,8.35
2023-03-24T18:39:47.924Z,7.90
2023-03-24T18:42:14.750Z,3.38
2023-03-24T18:44:42.119Z,6.95
2023-03-24T18:47:08.983Z,4.43
2023-03-24T18:49:35.837Z,4.90
2023-03-24T18:52:02.774Z,5.05
2023-03-24T18:54:29.590Z,6.15
2023-03-24T18:56:56.767Z,5.72
2023-03-24T18:59:24.326Z,6.88
2023-03-24T19:01:51.170Z,8.07
2023-03-24T19:04:18.218Z,7.50
2023-03-24T19:06:45.986Z,6.57
2023-03-24T19:09:13.481Z,5.90
2023-03-24T19:11:43.181Z,7.53
2023-03-24T19:14:10.614Z,10.15
2023-03-24T19:16:37.708Z,4.75
2023-03-24T19:19:04.794Z,6.35
2023-03-24T19:21:31.617Z,6.93
2023-03-24T19:23:59.449Z,5.32
2023-03-24T19:26:26.408Z,7.30
2023-03-24T19:28:53.408Z,7.10
2023-03-24T19:31:20.616Z,3.13
2023-03-24T19:33:47.902Z,6.78
2023-03-24T19:36:15.561Z,8.40
2023-03-24T19:38:42.660Z,5.85
2023-03-24T19:41:13.564Z,5.18
2023-03-24T19:43:40.828Z,6.28
2023-03-24T19:46:08.262Z,7.88
2023-03-24T19:48:35.634Z,6.82
2023-03-24T19:51:02.744Z,6.78
2023-03-24T19:53:30.215Z,7.43
2023-03-24T19:55:58.842Z,8.13
2023-03-24T19:58:25.835Z,4.78
2023-03-24T20:00:53.042Z,6.70
2023-03-24T20:03:20.468Z,5.60
2023-03-24T20:05:47.524Z,6.38
2023-03-24T20:08:14.499Z,7.25
2023-03-24T20:10:41.629Z,4.18
2023-03-24T20:13:10.023Z,3.22
2023-03-24T20:15:36.888Z,5.95
2023-03-24T20:18:04.077Z,4.43
2023-03-24T20:20:31.698Z,5.43
2023-03-24T20:22:58.603Z,8.98
2023-03-24T20:25:25.457Z,6.93
2023-03-24T20:27:52.435Z,4.10
2023-03-24T20:30:20.581Z,10.90
2023-03-24T20:32:47.858Z,6.88
2023-03-24T20:35:15.057Z,7.15
2023-03-24T20:37:41.956Z,5.80
2023-03-24T20:40:12.043Z,5.40
2023-03-24T20:42:39.013Z,8.27
2023-03-24T20:45:07.316Z,5.75
2023-03-24T20:47:35.083Z,7.13
2023-03-24T20:50:02.572Z,7.63
2023-03-24T20:52:29.724Z,7.55
2023-03-24T20:54:56.699Z,6.90
2023-03-24T20:57:25.724Z,6.60
2023-03-24T20:59:52.819Z,6.97
2023-03-24T21:02:20.324Z,6.40
2023-03-24T21:04:47.240Z,5.50
2023-03-24T21:07:14.397Z,5.82
2023-03-24T21:09:41.368Z,6.90
2023-03-24T21:12:09.474Z,5.78
2023-03-24T21:14:36.546Z,5.40
2023-03-24T21:17:03.673Z,7.00
2023-03-24T21:19:30.582Z,7.90
2023-03-24T21:21:57.464Z,6.60
2023-03-24T21:24:24.573Z,4.85
2023-03-24T21:26:53.951Z,6.50
2023-03-24T21:29:22.566Z,7.30
2023-03-24T21:31:49.908Z,5.55
2023-03-24T21:34:17.170Z,6.43
2023-03-24T21:36:44.040Z,7.28
2023-03-24T21:39:12.053Z,8.13
2023-03-24T21:41:39.895Z,9.40
2023-03-24T21:44:09.231Z,5.88
2023-03-24T21:46:37.049Z,11.43
2023-03-24T21:49:05.014Z,5.47
2023-03-24T21:51:34.933Z,5.57
2023-03-24T21:54:03.565Z,12.43
2023-03-24T21:56:32.844Z,9.85
2023-03-24T21:59:00.144Z,6.95
2023-03-24T22:01:27.266Z,7.53
2023-03-24T22:03:54.701Z,9.00
2023-03-24T22:06:22.789Z,10.93
2023-03-24T22:08:50.128Z,10.30
2023-03-24T22:11:19.048Z,9.30
2023-03-24T22:13:46.614Z,8.27
2023-03-24T22:16:14.483Z,8.65
2023-03-24T22:18:41.613Z,9.10
2023-03-24T22:21:10.544Z,5.60
2023-03-24T22:23:39.514Z,13.77
2023-03-24T22:26:12.284Z,6.00
2023-03-24T22:28:40.100Z,7.35
2023-03-24T22:31:09.580Z,9.80
2023-03-24T22:33:37.447Z,6.53
2023-03-24T22:36:05.625Z,9.07
2023-03-24T22:38:34.376Z,15.63
2023-03-24T22:41:04.767Z,9.80
2023-03-24T22:43:32.210Z,6.93
2023-03-24T22:45:59.086Z,9.20
2023-03-24T22:48:26.041Z,8.82
2023-03-24T22:50:53.496Z,7.50
2023-03-24T22:53:20.572Z,7.47
2023-03-24T22:55:47.935Z,9.50
2023-03-24T22:58:14.982Z,8.88
2023-03-24T23:00:43.677Z,7.25
2023-03-24T23:03:10.885Z,11.75
2023-03-24T23:05:45.838Z,12.75
2023-03-24T23:08:15.229Z,10.30
2023-03-24T23:10:44.049Z,7.07
2023-03-24T23:13:11.363Z,8.65
2023-03-24T23:15:39.496Z,13.18
2023-03-24T23:18:06.315Z,13.80
2023-03-24T23:20:33.213Z,10.98
2023-03-24T23:23:01.394Z,7.50
2023-03-24T23:25:31.170Z,11.15
2023-03-24T23:27:58.630Z,10.45
2023-03-24T23:30:25.676Z,8.85
2023-03-24T23:32:52.838Z,13.65
2023-03-24T23:35:19.959Z,11.18
2023-03-24T23:37:46.850Z,16.65
2023-03-24T23:40:15.586Z,9.98
2023-03-24T23:42:45.423Z,8.93
2023-03-24T23:45:14.755Z,11.18
2023-03-24T23:47:43.669Z,12.32
2023-03-24T23:50:11.604Z,9.77
2023-03-24T23:52:41.325Z,8.88
2023-03-24T23:55:10.369Z,11.15
2023-03-24T23:57:41.633Z,15.00
